createdAt,value
2018-08-27T00:00:28.361Z,66.73
2018-08-27T00:02:57.030Z,66.51
2018-08-27T00:05:25.839Z,66.64
2018-08-27T00:07:54.580Z,66.63
2018-08-27T00:10:23.429Z,66.09
2018-08-27T00:12:52.100Z,65.58
2018-08-27T00:15:20.921Z,65.55
2018-08-27T00:17:50.135Z,65.08
2018-08-27T00:20:18.814Z,64.71
2018-08-27T00:22:47.752Z,64.52
2018-08-27T00:25:16.496Z,64.08
2018-08-27T00:27:45.335Z,63.90
2018-08-27T00:30:14.032Z,63.71
2018-08-27T00:32:42.694Z,63.45
2018-08-27T00:35:11.455Z,63.09
2018-08-27T00:37:40.078Z,62.92
2018-08-27T00:40:08.739Z,62.59
2018-08-27T00:42:43.024Z,62.39
2018-08-27T00:45:11.651Z,62.08
2018-08-27T00:47:40.317Z,62.13
2018-08-27T00:50:08.977Z,62.37
2018-08-27T00:52:37.635Z,62.65
2018-08-27T00:55:06.391Z,62.67
2018-08-27T00:57:35.066Z,62.93
2018-08-27T01:00:03.739Z,62.36
2018-08-27T01:02:32.480Z,62.72
2018-08-27T01:05:01.153Z,62.65
2018-08-27T01:07:29.826Z,62.83
2018-08-27T01:09:58.588Z,62.90
2018-08-27T01:12:27.219Z,62.16
2018-08-27T01:14:55.900Z,62.37
2018-08-27T01:17:24.808Z,62.28
2018-08-27T01:19:53.458Z,61.77
2018-08-27T01:22:22.162Z,61.82
2018-08-27T01:24:50.806Z,61.71
2018-08-27T01:27:19.471Z,60.96
2018-08-27T01:29:48.168Z,60.85
2018-08-27T01:32:22.065Z,60.74
2018-08-27T01:34:50.760Z,60.64
2018-08-27T01:37:19.494Z,59.98
2018-08-27T01:39:48.204Z,60.03
2018-08-27T01:42:16.937Z,59.61
2018-08-27T01:44:45.690Z,58.85
2018-08-27T01:47:14.343Z,58.86
2018-08-27T01:49:43.023Z,58.04
2018-08-27T01:52:12.004Z,57.45
2018-08-27T01:54:40.694Z,57.27
2018-08-27T01:57:09.332Z,56.56
2018-08-27T01:59:38.009Z,56.29
2018-08-27T02:02:06.690Z,56.03
2018-08-27T02:04:35.412Z,55.43
2018-08-27T02:07:04.038Z,55.25
2018-08-27T02:09:32.697Z,55.31
2018-08-27T02:12:01.344Z,54.89
2018-08-27T02:14:30.265Z,54.47
2018-08-27T02:16:59.340Z,54.01
2018-08-27T02:19:28.023Z,53.96
2018-08-27T02:21:56.697Z,53.74
2018-08-27T02:24:25.364Z,53.29
2018-08-27T02:26:54.004Z,52.77
2018-08-27T02:29:22.670Z,52.77
2018-08-27T02:31:51.313Z,52.61
2018-08-27T02:34:19.989Z,52.51
2018-08-27T02:36:48.617Z,52.51
2018-08-27T02:39:17.317Z,52.27
2018-08-27T02:41:46.271Z,52.35
2018-08-27T02:44:14.962Z,52.20
2018-08-27T02:46:44.121Z,52.13
2018-08-27T02:49:12.791Z,51.80
2018-08-27T02:51:41.435Z,51.51
2018-08-27T02:54:10.061Z,51.41
2018-08-27T02:56:38.726Z,51.37
2018-08-27T02:59:07.360Z,52.12
2018-08-27T03:01:36.016Z,53.23
2018-08-27T03:04:04.681Z,53.71
2018-08-27T03:06:33.350Z,53.73
2018-08-27T03:09:02.030Z,54.13
2018-08-27T03:11:30.762Z,53.60
2018-08-27T03:13:59.377Z,53.26
2018-08-27T03:16:28.049Z,52.88
2018-08-27T03:18:56.757Z,52.27
2018-08-27T03:21:25.519Z,51.88
2018-08-27T03:23:54.247Z,51.32
2018-08-27T03:26:22.870Z,51.50
2018-08-27T03:28:51.571Z,50.78
2018-08-27T03:31:20.260Z,50.99
2018-08-27T03:33:49.041Z,51.19
2018-08-27T03:36:17.728Z,51.29
2018-08-27T03:38:46.384Z,50.84
2018-08-27T03:41:15.056Z,51.49
2018-08-27T03:43:43.724Z,51.76
2018-08-27T03:46:12.356Z,52.37
2018-08-27T03:48:41.479Z,51.48
2018-08-27T03:51:10.034Z,51.58
2018-08-27T03:53:38.686Z,51.32
2018-08-27T03:56:07.326Z,51.55
2018-08-27T03:58:35.968Z,51.50
2018-08-27T04:01:04.673Z,51.16
2018-08-27T04:03:33.340Z,51.17
2018-08-27T04:06:01.984Z,51.20
2018-08-27T04:08:30.649Z,51.30
2018-08-27T04:10:59.327Z,51.17
2018-08-27T04:13:28.020Z,51.38
2018-08-27T04:15:56.743Z,51.40
2018-08-27T04:18:25.420Z,51.36
2018-08-27T04:20:54.103Z,51.32
2018-08-27T04:23:22.788Z,51.25
2018-08-27T04:25:51.454Z,51.06
2018-08-27T04:28:20.202Z,51.76
2018-08-27T04:30:48.860Z,52.32
2018-08-27T04:33:17.528Z,52.42
2018-08-27T04:35:46.211Z,51.99
2018-08-27T04:38:14.921Z,51.66
2018-08-27T04:40:43.627Z,51.86
2018-08-27T04:43:12.290Z,52.30
2018-08-27T04:45:40.941Z,52.89
2018-08-27T04:48:09.638Z,52.91
2018-08-27T04:50:38.303Z,52.83
2018-08-27T04:53:07.005Z,52.41
2018-08-27T04:55:35.680Z,52.38
2018-08-27T04:58:04.390Z,52.30
2018-08-27T05:00:36.575Z,52.31
2018-08-27T05:03:05.444Z,52.11
2018-08-27T05:05:34.124Z,52.17
2018-08-27T05:08:02.788Z,52.15
2018-08-27T05:10:31.520Z,52.19
2018-08-27T05:13:00.330Z,52.03
2018-08-27T05:15:29.047Z,51.96
2018-08-27T05:17:57.703Z,51.97
2018-08-27T05:20:26.619Z,52.04
2018-08-27T05:22:55.281Z,52.06
2018-08-27T05:25:24.032Z,52.28
2018-08-27T05:27:52.688Z,55.60
2018-08-27T05:30:21.335Z,54.55
2018-08-27T05:32:50.071Z,52.19
2018-08-27T05:35:18.994Z,51.62
2018-08-27T05:37:49.043Z,52.04
2018-08-27T05:40:17.696Z,53.02
2018-08-27T05:42:46.465Z,54.09
2018-08-27T05:45:15.449Z,54.73
2018-08-27T05:47:45.604Z,55.14
2018-08-27T05:50:14.850Z,55.37
2018-08-27T05:52:44.432Z,55.31
2018-08-27T05:55:13.126Z,55.01
2018-08-27T05:57:41.834Z,55.46
2018-08-27T06:00:10.510Z,54.94
2018-08-27T06:02:39.208Z,54.32
2018-08-27T06:05:07.871Z,53.89
2018-08-27T06:07:36.638Z,53.28
2018-08-27T06:10:07.865Z,52.90
2018-08-27T06:12:37.154Z,52.53
2018-08-27T06:15:09.814Z,52.41
2018-08-27T06:17:39.031Z,52.52
2018-08-27T06:20:07.943Z,53.55
2018-08-27T06:22:36.870Z,53.95
2018-08-27T06:25:06.893Z,53.86
2018-08-27T06:27:36.486Z,54.72
2018-08-27T06:30:07.018Z,54.00
2018-08-27T06:32:36.866Z,53.35
2018-08-27T06:35:08.619Z,52.35
2018-08-27T06:37:37.657Z,51.55
2018-08-27T06:40:06.924Z,50.96
2018-08-27T06:42:35.673Z,50.61
2018-08-27T06:45:04.839Z,49.94
2018-08-27T06:47:34.787Z,49.94
2018-08-27T06:50:03.714Z,49.58
2018-08-27T06:52:32.414Z,49.97
2018-08-27T06:55:01.910Z,50.04
2018-08-27T06:57:31.660Z,49.78
2018-08-27T07:00:01.401Z,49.58
2018-08-27T07:02:30.082Z,49.87
2018-08-27T07:04:58.737Z,49.64
2018-08-27T07:07:27.668Z,49.35
2018-08-27T07:09:56.324Z,49.11
2018-08-27T07:12:25.021Z,49.18
2018-08-27T07:14:53.991Z,48.96
2018-08-27T07:17:23.051Z,48.87
2018-08-27T07:19:52.206Z,48.77
2018-08-27T07:22:21.006Z,48.87
2018-08-27T07:24:49.730Z,49.09
2018-08-27T07:27:18.868Z,49.13
2018-08-27T07:29:49.083Z,49.48
2018-08-27T07:32:18.450Z,49.81
2018-08-27T07:34:47.590Z,50.47
2018-08-27T07:37:16.579Z,50.66
2018-08-27T07:39:46.332Z,51.34
2018-08-27T07:42:15.276Z,51.96
2018-08-27T07:44:44.235Z,52.39
2018-08-27T07:47:12.928Z,54.88
2018-08-27T07:49:42.071Z,55.15
2018-08-27T07:52:10.776Z,55.30
2018-08-27T07:54:39.542Z,55.82
2018-08-27T07:57:08.219Z,55.98
2018-08-27T07:59:36.859Z,56.18
2018-08-27T08:02:05.758Z,56.15
2018-08-27T08:04:34.535Z,55.88
2018-08-27T08:07:03.275Z,55.92
2018-08-27T08:09:32.008Z,55.61
2018-08-27T08:12:00.679Z,55.76
2018-08-27T08:14:29.431Z,55.74
2018-08-27T08:16:58.107Z,56.06
2018-08-27T08:19:26.743Z,56.27
2018-08-27T08:21:55.417Z,56.05
2018-08-27T08:24:24.452Z,55.90
2018-08-27T08:26:53.142Z,56.61
2018-08-27T08:29:22.407Z,56.70
2018-08-27T08:31:51.048Z,56.87
2018-08-27T08:34:19.733Z,56.88
2018-08-27T08:36:48.423Z,56.89
2018-08-27T08:39:17.163Z,57.28
2018-08-27T08:41:45.826Z,57.94
2018-08-27T08:44:14.522Z,58.56
2018-08-27T08:46:43.200Z,58.91
2018-08-27T08:49:12.118Z,58.93
2018-08-27T08:51:40.803Z,59.27
2018-08-27T08:54:09.489Z,60.67
2018-08-27T08:56:38.185Z,62.13
2018-08-27T08:59:06.818Z,62.49
2018-08-27T09:01:35.664Z,62.76
2018-08-27T09:04:04.308Z,63.14
2018-08-27T09:06:33.032Z,64.79
2018-08-27T09:09:01.762Z,66.44
2018-08-27T09:11:30.403Z,67.85
2018-08-27T09:13:59.144Z,67.71
2018-08-27T09:16:27.834Z,68.63
2018-08-27T09:18:56.480Z,69.27
2018-08-27T09:21:25.154Z,70.30
2018-08-27T09:23:53.869Z,71.99
2018-08-27T09:26:22.576Z,72.66
2018-08-27T09:28:51.288Z,72.43
2018-08-27T09:31:20.123Z,72.19
2018-08-27T09:33:48.792Z,72.37
2018-08-27T09:36:17.566Z,72.66
2018-08-27T09:38:46.300Z,72.12
2018-08-27T09:41:15.137Z,72.82
2018-08-27T09:43:43.842Z,72.32
2018-08-27T09:46:12.919Z,72.52
2018-08-27T09:48:41.555Z,72.82
2018-08-27T09:51:11.083Z,72.30
2018-08-27T09:53:39.771Z,71.68
2018-08-27T09:56:08.416Z,71.57
2018-08-27T09:58:37.143Z,71.30
2018-08-27T10:01:11.188Z,73.08
2018-08-27T10:03:39.930Z,82.44
2018-08-27T10:06:08.598Z,83.75
2018-08-27T10:08:37.341Z,81.99
2018-08-27T10:11:06.000Z,83.21
2018-08-27T10:13:34.676Z,80.89
2018-08-27T10:16:03.321Z,79.96
2018-08-27T10:18:31.998Z,78.41
2018-08-27T10:21:00.737Z,77.68
2018-08-27T10:23:29.437Z,75.92
2018-08-27T10:25:58.176Z,77.24
2018-08-27T10:28:26.863Z,77.37
2018-08-27T10:30:55.584Z,75.16
2018-08-27T10:33:24.216Z,75.85
2018-08-27T10:35:52.964Z,74.82
2018-08-27T10:38:21.616Z,74.65
2018-08-27T10:40:50.295Z,74.82
2018-08-27T10:43:19.392Z,76.34
2018-08-27T10:45:48.053Z,79.92
2018-08-27T10:48:16.723Z,82.30
2018-08-27T10:50:45.419Z,85.37
2018-08-27T10:53:14.079Z,84.89
2018-08-27T10:55:42.787Z,86.28
2018-08-27T10:58:11.458Z,86.59
2018-08-27T11:00:40.130Z,87.20
2018-08-27T11:03:08.876Z,87.88
2018-08-27T11:05:37.549Z,87.17
2018-08-27T11:08:06.223Z,86.30
2018-08-27T11:10:34.996Z,86.31
2018-08-27T11:13:03.651Z,87.27
2018-08-27T11:15:32.351Z,86.11
2018-08-27T11:18:01.456Z,86.18
2018-08-27T11:20:30.371Z,86.43
2018-08-27T11:22:58.945Z,86.82
2018-08-27T11:25:27.828Z,87.07
2018-08-27T11:27:56.610Z,86.39
2018-08-27T11:30:25.364Z,86.72
2018-08-27T11:32:54.063Z,86.66
2018-08-27T11:35:22.701Z,86.46
2018-08-27T11:37:51.832Z,86.58
2018-08-27T11:40:20.515Z,86.94
2018-08-27T11:42:49.198Z,86.50
2018-08-27T11:45:17.911Z,86.21
2018-08-27T11:47:46.580Z,85.88
2018-08-27T11:50:15.400Z,86.41
2018-08-27T11:52:43.967Z,86.31
2018-08-27T11:55:12.665Z,86.64
2018-08-27T11:57:41.393Z,87.03
2018-08-27T12:00:15.272Z,86.19
2018-08-27T12:02:44.060Z,86.27
2018-08-27T12:05:12.786Z,87.30
2018-08-27T12:07:41.491Z,86.95
2018-08-27T12:10:10.152Z,87.17
2018-08-27T12:12:38.848Z,87.69
2018-08-27T12:15:07.540Z,87.80
2018-08-27T12:17:36.184Z,87.93
2018-08-27T12:20:05.258Z,88.43
2018-08-27T12:22:33.921Z,88.60
2018-08-27T12:25:02.645Z,88.88
2018-08-27T12:27:31.309Z,89.05
2018-08-27T12:29:59.975Z,88.43
2018-08-27T12:32:28.663Z,88.04
2018-08-27T12:34:57.494Z,88.04
2018-08-27T12:37:26.169Z,87.88
2018-08-27T12:39:54.892Z,88.32
2018-08-27T12:42:24.613Z,88.49
2018-08-27T12:44:53.364Z,87.81
2018-08-27T12:47:22.068Z,87.33
2018-08-27T12:49:50.725Z,87.21
2018-08-27T12:52:19.427Z,87.23
2018-08-27T12:54:48.137Z,86.46
2018-08-27T12:57:16.829Z,85.96
2018-08-27T12:59:45.607Z,85.70
2018-08-27T13:02:14.274Z,85.47
2018-08-27T13:04:42.943Z,85.21
2018-08-27T13:07:11.642Z,85.15
2018-08-27T13:09:40.292Z,84.92
2018-08-27T13:12:09.000Z,84.07
2018-08-27T13:14:37.647Z,83.84
2018-08-27T13:17:06.332Z,82.32
2018-08-27T13:19:35.018Z,80.65
2018-08-27T13:22:03.716Z,78.23
2018-08-27T13:24:32.388Z,77.23
2018-08-27T13:27:01.062Z,75.07
2018-08-27T13:29:29.741Z,73.37
2018-08-27T13:31:58.492Z,72.89
2018-08-27T13:34:27.708Z,70.80
2018-08-27T13:36:56.803Z,71.09
2018-08-27T13:39:25.565Z,69.35
2018-08-27T13:41:54.331Z,68.66
2018-08-27T13:44:23.002Z,67.93
2018-08-27T13:46:51.694Z,69.70
2018-08-27T13:49:20.371Z,71.18
2018-08-27T13:51:50.168Z,70.68
2018-08-27T13:54:18.877Z,71.82
2018-08-27T13:56:47.588Z,72.85
2018-08-27T13:59:16.312Z,71.87
2018-08-27T14:01:45.023Z,72.39
2018-08-27T14:04:13.762Z,73.07
2018-08-27T14:06:42.471Z,73.00
2018-08-27T14:09:11.239Z,73.43
2018-08-27T14:11:39.930Z,73.56
2018-08-27T14:14:08.636Z,73.62
2018-08-27T14:16:37.366Z,74.16
2018-08-27T14:19:06.291Z,73.78
2018-08-27T14:21:35.008Z,73.89
2018-08-27T14:24:04.068Z,73.75
2018-08-27T14:26:32.916Z,74.17
2018-08-27T14:29:01.656Z,74.72
2018-08-27T14:31:30.567Z,75.61
2018-08-27T14:33:59.255Z,76.81
2018-08-27T14:36:27.978Z,77.34
2018-08-27T14:38:56.882Z,77.20
2018-08-27T14:41:25.413Z,77.44
2018-08-27T14:43:54.053Z,77.92
2018-08-27T14:46:22.722Z,78.81
2018-08-27T14:48:51.486Z,80.19
2018-08-27T14:51:20.222Z,81.82
2018-08-27T14:53:48.940Z,83.48
2018-08-27T14:56:17.814Z,84.29
2018-08-27T14:58:46.607Z,86.63
2018-08-27T15:01:15.325Z,86.36
2018-08-27T15:03:44.032Z,86.44
2018-08-27T15:06:12.767Z,86.40
2018-08-27T15:08:42.623Z,85.47
2018-08-27T15:11:11.319Z,84.92
2018-08-27T15:13:39.969Z,84.67
2018-08-27T15:16:09.365Z,84.24
2018-08-27T15:18:38.138Z,83.98
2018-08-27T15:21:06.860Z,83.49
2018-08-27T15:23:36.465Z,83.89
2018-08-27T15:26:05.581Z,83.64
2018-08-27T15:28:34.350Z,82.44
2018-08-27T15:31:03.135Z,82.63
2018-08-27T15:33:31.864Z,82.02
2018-08-27T15:36:00.544Z,82.02
2018-08-27T15:38:29.343Z,81.79
2018-08-27T15:40:58.644Z,81.83
2018-08-27T15:43:27.361Z,81.65
2018-08-27T15:46:01.467Z,81.50
2018-08-27T15:48:30.300Z,80.04
2018-08-27T15:50:59.011Z,80.03
2018-08-27T15:53:27.734Z,80.35
2018-08-27T15:55:56.524Z,80.35
2018-08-27T15:58:25.186Z,79.73
2018-08-27T16:00:53.834Z,79.88
2018-08-27T16:03:22.543Z,80.38
2018-08-27T16:05:51.228Z,80.77
2018-08-27T16:08:19.990Z,80.20
2018-08-27T16:10:48.693Z,79.93
2018-08-27T16:13:17.388Z,79.14
2018-08-27T16:15:46.614Z,78.47
2018-08-27T16:18:15.328Z,79.02
2018-08-27T16:20:44.036Z,78.06
2018-08-27T16:23:12.738Z,77.55
2018-08-27T16:25:41.428Z,76.90
2018-08-27T16:28:10.095Z,76.55
2018-08-27T16:30:38.918Z,76.99
2018-08-27T16:33:07.633Z,76.78
2018-08-27T16:35:36.638Z,76.90
2018-08-27T16:38:05.721Z,77.10
2018-08-27T16:40:34.395Z,77.88
2018-08-27T16:43:03.758Z,78.31
2018-08-27T16:45:33.309Z,78.29
2018-08-27T16:48:04.221Z,79.00
2018-08-27T16:50:32.922Z,79.75
2018-08-27T16:53:01.850Z,79.79
2018-08-27T16:55:31.888Z,79.86
2018-08-27T16:58:00.552Z,80.50
2018-08-27T17:00:29.282Z,80.82
2018-08-27T17:02:57.937Z,80.83
2018-08-27T17:05:27.022Z,81.40
2018-08-27T17:07:55.755Z,81.64
2018-08-27T17:10:24.473Z,81.58
2018-08-27T17:12:53.096Z,81.73
2018-08-27T17:15:21.800Z,82.09
2018-08-27T17:17:50.455Z,82.34
2018-08-27T17:20:19.143Z,81.91
2018-08-27T17:22:47.848Z,82.31
2018-08-27T17:25:17.216Z,82.70
2018-08-27T17:27:45.895Z,82.28
2018-08-27T17:30:14.640Z,82.44
2018-08-27T17:32:43.318Z,82.60
2018-08-27T17:35:12.025Z,81.78
2018-08-27T17:37:40.688Z,82.39
2018-08-27T17:40:09.413Z,81.39
2018-08-27T17:42:38.048Z,81.77
2018-08-27T17:45:07.207Z,81.43
2018-08-27T17:47:35.660Z,81.54
2018-08-27T17:50:04.311Z,80.98
2018-08-27T17:52:32.972Z,80.93
2018-08-27T17:55:01.712Z,81.20
2018-08-27T17:57:30.460Z,80.99
2018-08-27T17:59:59.126Z,81.36
2018-08-27T18:02:27.772Z,81.23
2018-08-27T18:04:56.442Z,81.49
2018-08-27T18:07:25.113Z,81.45
2018-08-27T18:09:53.780Z,81.51
2018-08-27T18:12:22.511Z,81.95
2018-08-27T18:14:51.159Z,81.45
2018-08-27T18:17:19.870Z,81.73
2018-08-27T18:19:48.554Z,81.57
2018-08-27T18:22:17.526Z,81.83
2018-08-27T18:24:46.233Z,82.25
2018-08-27T18:27:15.842Z,82.26
2018-08-27T18:29:44.882Z,82.25
2018-08-27T18:32:14.077Z,82.97
2018-08-27T18:34:42.958Z,83.17
2018-08-27T18:37:11.984Z,83.12
2018-08-27T18:39:42.024Z,83.49
2018-08-27T18:42:10.723Z,84.27
2018-08-27T18:44:39.473Z,84.83
2018-08-27T18:47:08.946Z,84.98
2018-08-27T18:49:38.358Z,85.41
2018-08-27T18:52:06.976Z,85.82
2018-08-27T18:54:35.708Z,85.68
2018-08-27T18:57:04.383Z,86.03
2018-08-27T18:59:33.096Z,85.79
2018-08-27T19:02:01.808Z,86.29
2018-08-27T19:04:30.920Z,85.48
2018-08-27T19:06:59.670Z,86.15
2018-08-27T19:09:28.300Z,85.92
2018-08-27T19:11:56.940Z,86.14
2018-08-27T19:14:25.613Z,85.98
2018-08-27T19:16:54.447Z,86.57
2018-08-27T19:19:23.077Z,85.50
2018-08-27T19:21:51.731Z,85.42
2018-08-27T19:24:20.399Z,84.47
2018-08-27T19:26:49.052Z,84.32
2018-08-27T19:29:17.718Z,84.20
2018-08-27T19:31:46.406Z,83.13
2018-08-27T19:34:15.072Z,83.31
2018-08-27T19:36:43.843Z,82.69
2018-08-27T19:39:12.537Z,81.94
2018-08-27T19:41:41.139Z,81.55
2018-08-27T19:44:09.970Z,81.66
2018-08-27T19:46:38.717Z,81.03
2018-08-27T19:49:07.829Z,80.49
2018-08-27T19:51:38.077Z,79.45
2018-08-27T19:54:06.812Z,79.55
2018-08-27T19:56:35.603Z,79.00
2018-08-27T19:59:04.472Z,78.19
2018-08-27T20:01:33.153Z,78.26
2018-08-27T20:04:02.512Z,78.63
2018-08-27T20:06:31.300Z,78.48
2018-08-27T20:09:00.207Z,78.55
2018-08-27T20:11:28.876Z,78.66
2018-08-27T20:13:57.532Z,78.87
2018-08-27T20:16:26.762Z,78.14
2018-08-27T20:18:55.389Z,78.54
2018-08-27T20:21:24.097Z,78.78
2018-08-27T20:23:53.217Z,78.22
2018-08-27T20:26:21.960Z,78.53
2018-08-27T20:28:50.618Z,78.81
2018-08-27T20:31:19.897Z,78.57
2018-08-27T20:33:48.562Z,78.87
2018-08-27T20:36:17.245Z,78.62
2018-08-27T20:38:46.039Z,79.35
2018-08-27T20:41:15.538Z,79.41
2018-08-27T20:43:44.258Z,79.19
2018-08-27T20:46:12.939Z,78.48
2018-08-27T20:48:41.605Z,78.95
2018-08-27T20:51:10.379Z,79.74
2018-08-27T20:53:39.042Z,79.99
2018-08-27T20:56:07.684Z,80.64
2018-08-27T20:58:36.364Z,80.73
2018-08-27T21:01:05.360Z,80.28
2018-08-27T21:03:34.048Z,80.85
2018-08-27T21:06:03.058Z,80.65
2018-08-27T21:08:31.739Z,80.71
2018-08-27T21:11:00.400Z,80.87
2018-08-27T21:13:29.060Z,81.28
2018-08-27T21:15:57.759Z,81.20
2018-08-27T21:18:26.453Z,81.92
2018-08-27T21:20:55.386Z,80.99
2018-08-27T21:23:24.088Z,81.84
2018-08-27T21:25:52.719Z,82.15
2018-08-27T21:28:21.423Z,82.33
2018-08-27T21:30:50.108Z,81.47
2018-08-27T21:33:18.952Z,81.80
2018-08-27T21:35:47.576Z,81.95
2018-08-27T21:38:16.257Z,82.05
2018-08-27T21:40:44.901Z,82.13
2018-08-27T21:43:13.564Z,81.88
2018-08-27T21:45:42.247Z,81.93
2018-08-27T21:48:11.088Z,81.44
2018-08-27T21:50:39.728Z,81.86
2018-08-27T21:53:08.373Z,81.93
2018-08-27T21:55:37.044Z,82.74
2018-08-27T21:58:06.191Z,82.53
2018-08-27T22:00:39.032Z,82.30
2018-08-27T22:03:13.247Z,83.17
2018-08-27T22:05:41.868Z,82.60
2018-08-27T22:08:10.570Z,82.56
2018-08-27T22:10:39.303Z,82.53
2018-08-27T22:13:07.990Z,82.98
2018-08-27T22:15:36.790Z,83.12
2018-08-27T22:18:05.620Z,83.12
2018-08-27T22:20:34.269Z,83.42
2018-08-27T22:23:03.319Z,83.47
2018-08-27T22:25:31.987Z,83.00
2018-08-27T22:28:00.688Z,83.21
2018-08-27T22:30:29.391Z,83.49
2018-08-27T22:32:58.059Z,83.92
2018-08-27T22:35:26.927Z,83.10
2018-08-27T22:37:55.600Z,82.86
2018-08-27T22:40:24.284Z,82.31
2018-08-27T22:42:53.308Z,83.18
2018-08-27T22:45:21.956Z,83.73
2018-08-27T22:47:50.647Z,83.33
2018-08-27T22:50:19.789Z,83.47
2018-08-27T22:52:48.644Z,83.20
2018-08-27T22:55:17.614Z,83.42
2018-08-27T22:57:46.257Z,83.24
2018-08-27T23:00:14.894Z,83.39
2018-08-27T23:02:48.876Z,82.94
2018-08-27T23:05:17.523Z,83.80
2018-08-27T23:07:46.199Z,83.60
2018-08-27T23:10:14.889Z,83.48
2018-08-27T23:12:43.590Z,83.70
2018-08-27T23:15:12.362Z,83.69
2018-08-27T23:17:41.017Z,84.15
2018-08-27T23:20:09.680Z,83.86
2018-08-27T23:22:38.305Z,83.74
2018-08-27T23:25:07.002Z,84.58
2018-08-27T23:27:35.652Z,83.78
2018-08-27T23:30:04.555Z,84.40
2018-08-27T23:32:33.203Z,84.62
2018-08-27T23:35:01.851Z,84.59
2018-08-27T23:37:30.549Z,85.11
2018-08-27T23:39:59.205Z,84.49
2018-08-27T23:42:27.875Z,84.79
2018-08-27T23:44:56.582Z,85.27
2018-08-27T23:47:25.279Z,84.87
2018-08-27T23:49:53.963Z,84.86
2018-08-27T23:52:22.662Z,84.86
2018-08-27T23:54:51.317Z,85.12
2018-08-27T23:57:19.944Z,85.41
2018-08-27T23:59:48.624Z,84.92
